sensor_id;sensor_type;location;lat;lon;timestamp;temperature;humidity
4505;DHT22;2265;48.794;9.520;2023-05-09T00:01:42;14.40;98.00
4505;DHT22;2265;48.794;9.520;2023-05-09T00:04:10;14.40;98.00
4505;DHT22;2265;48.794;9.520;2023-05-09T00:06:37;14.40;98.00
4505;DHT22;2265;48.794;9.520;2023-05-09T00:09:04;14.40;98.00
4505;DHT22;2265;48.794;9.520;2023-05-09T00:11:32;14.40;98.00
4505;DHT22;2265;48.794;9.520;2023-05-09T00:14:00;14.30;98.00
4505;DHT22;2265;48.794;9.520;2023-05-09T00:16:28;14.20;98.00
4505;DHT22;2265;48.794;9.520;2023-05-09T00:18:57;14.10;98.00
4505;DHT22;2265;48.794;9.520;2023-05-09T00:21:24;14.10;98.00
4505;DHT22;2265;48.794;9.520;2023-05-09T00:23:52;14.10;98.00
4505;DHT22;2265;48.794;9.520;2023-05-09T00:26:20;14.00;98.00
4505;DHT22;2265;48.794;9.520;2023-05-09T00:28:47;14.00;98.00
4505;DHT22;2265;48.794;9.520;2023-05-09T00:31:16;14.00;98.00
4505;DHT22;2265;48.794;9.520;2023-05-09T00:33:44;14.10;98.00
4505;DHT22;2265;48.794;9.520;2023-05-09T00:36:11;14.00;98.00
4505;DHT22;2265;48.794;9.520;2023-05-09T00:38:38;14.00;98.00
4505;DHT22;2265;48.794;9.520;2023-05-09T00:41:05;14.00;98.00
4505;DHT22;2265;48.794;9.520;2023-05-09T00:43:32;13.90;98.00
4505;DHT22;2265;48.794;9.520;2023-05-09T00:46:00;13.90;98.00
4505;DHT22;2265;48.794;9.520;2023-05-09T00:48:28;14.00;98.00
4505;DHT22;2265;48.794;9.520;2023-05-09T00:50:55;14.00;98.00
4505;DHT22;2265;48.794;9.520;2023-05-09T00:53:26;14.00;98.00
4505;DHT22;2265;48.794;9.520;2023-05-09T00:55:54;14.00;98.00
4505;DHT22;2265;48.794;9.520;2023-05-09T00:58:22;14.10;98.00
4505;DHT22;2265;48.794;9.520;2023-05-09T01:00:49;14.00;98.00
4505;DHT22;2265;48.794;9.520;2023-05-09T01:03:16;14.00;98.00
4505;DHT22;2265;48.794;9.520;2023-05-09T01:05:53;14.00;98.00
4505;DHT22;2265;48.794;9.520;2023-05-09T01:08:38;14.00;98.00
4505;DHT22;2265;48.794;9.520;2023-05-09T01:11:10;13.90;98.00
4505;DHT22;2265;48.794;9.520;2023-05-09T01:13:45;14.00;98.00
4505;DHT22;2265;48.794;9.520;2023-05-09T01:16:18;13.90;98.00
4505;DHT22;2265;48.794;9.520;2023-05-09T01:18:56;13.90;98.00
4505;DHT22;2265;48.794;9.520;2023-05-09T01:21:29;13.90;98.00
4505;DHT22;2265;48.794;9.520;2023-05-09T01:24:24;13.80;98.00
4505;DHT22;2265;48.794;9.520;2023-05-09T01:27:14;13.70;98.00
4505;DHT22;2265;48.794;9.520;2023-05-09T01:29:50;13.60;98.00
4505;DHT22;2265;48.794;9.520;2023-05-09T01:32:24;13.50;98.00
4505;DHT22;2265;48.794;9.520;2023-05-09T01:34:54;13.40;98.00
4505;DHT22;2265;48.794;9.520;2023-05-09T01:37:28;13.30;98.00
4505;DHT22;2265;48.794;9.520;2023-05-09T01:39:57;13.30;98.00
4505;DHT22;2265;48.794;9.520;2023-05-09T01:42:28;13.40;98.00
4505;DHT22;2265;48.794;9.520;2023-05-09T01:44:58;13.30;98.00
4505;DHT22;2265;48.794;9.520;2023-05-09T01:47:26;13.30;98.00
4505;DHT22;2265;48.794;9.520;2023-05-09T01:49:54;13.40;98.00
4505;DHT22;2265;48.794;9.520;2023-05-09T01:52:22;13.30;98.00
4505;DHT22;2265;48.794;9.520;2023-05-09T01:54:51;13.50;98.00
4505;DHT22;2265;48.794;9.520;2023-05-09T01:57:18;13.40;98.00
4505;DHT22;2265;48.794;9.520;2023-05-09T01:59:46;13.40;98.00
4505;DHT22;2265;48.794;9.520;2023-05-09T02:02:16;13.30;98.00
4505;DHT22;2265;48.794;9.520;2023-05-09T02:04:44;13.20;98.00
4505;DHT22;2265;48.794;9.520;2023-05-09T02:07:13;13.20;98.00
4505;DHT22;2265;48.794;9.520;2023-05-09T02:09:41;13.20;98.00
4505;DHT22;2265;48.794;9.520;2023-05-09T02:12:10;13.20;98.00
4505;DHT22;2265;48.794;9.520;2023-05-09T02:14:37;13.20;98.00
4505;DHT22;2265;48.794;9.520;2023-05-09T02:17:04;13.40;98.00
4505;DHT22;2265;48.794;9.520;2023-05-09T02:19:35;13.40;98.00
4505;DHT22;2265;48.794;9.520;2023-05-09T02:22:02;13.60;98.00
4505;DHT22;2265;48.794;9.520;2023-05-09T02:24:32;13.60;98.00
4505;DHT22;2265;48.794;9.520;2023-05-09T02:27:00;13.50;98.00
4505;DHT22;2265;48.794;9.520;2023-05-09T02:29:30;13.40;98.00
4505;DHT22;2265;48.794;9.520;2023-05-09T02:32:06;13.30;98.00
4505;DHT22;2265;48.794;9.520;2023-05-09T02:34:37;13.30;98.00
4505;DHT22;2265;48.794;9.520;2023-05-09T02:37:06;13.10;98.00
4505;DHT22;2265;48.794;9.520;2023-05-09T02:39:34;13.20;98.00
4505;DHT22;2265;48.794;9.520;2023-05-09T02:42:05;13.20;98.00
4505;DHT22;2265;48.794;9.520;2023-05-09T02:44:33;13.10;98.00
4505;DHT22;2265;48.794;9.520;2023-05-09T02:47:02;13.10;98.00
4505;DHT22;2265;48.794;9.520;2023-05-09T02:49:29;13.10;98.00
4505;DHT22;2265;48.794;9.520;2023-05-09T02:51:58;13.00;98.00
4505;DHT22;2265;48.794;9.520;2023-05-09T02:54:25;13.10;98.00
4505;DHT22;2265;48.794;9.520;2023-05-09T02:56:52;13.10;98.00
4505;DHT22;2265;48.794;9.520;2023-05-09T02:59:19;13.10;98.00
4505;DHT22;2265;48.794;9.520;2023-05-09T03:01:46;13.10;98.00
4505;DHT22;2265;48.794;9.520;2023-05-09T03:04:13;13.20;98.00
4505;DHT22;2265;48.794;9.520;2023-05-09T03:06:41;13.20;98.00
4505;DHT22;2265;48.794;9.520;2023-05-09T03:09:09;13.40;98.00
4505;DHT22;2265;48.794;9.520;2023-05-09T03:11:36;13.40;98.00
4505;DHT22;2265;48.794;9.520;2023-05-09T03:14:04;13.50;98.00
4505;DHT22;2265;48.794;9.520;2023-05-09T03:16:33;13.60;98.00
4505;DHT22;2265;48.794;9.520;2023-05-09T03:19:00;13.60;98.00
4505;DHT22;2265;48.794;9.520;2023-05-09T03:21:27;13.50;98.00
4505;DHT22;2265;48.794;9.520;2023-05-09T03:23:54;13.60;98.00
4505;DHT22;2265;48.794;9.520;2023-05-09T03:26:25;13.60;98.00
4505;DHT22;2265;48.794;9.520;2023-05-09T03:28:53;13.60;98.00
4505;DHT22;2265;48.794;9.520;2023-05-09T03:31:21;13.50;98.00
4505;DHT22;2265;48.794;9.520;2023-05-09T03:33:48;13.40;98.00
4505;DHT22;2265;48.794;9.520;2023-05-09T03:36:15;13.40;98.00
4505;DHT22;2265;48.794;9.520;2023-05-09T03:38:42;13.40;98.00
4505;DHT22;2265;48.794;9.520;2023-05-09T03:41:10;13.30;98.00
4505;DHT22;2265;48.794;9.520;2023-05-09T03:43:39;13.20;98.00
4505;DHT22;2265;48.794;9.520;2023-05-09T03:46:06;13.10;98.00
4505;DHT22;2265;48.794;9.520;2023-05-09T03:48:34;13.10;98.00
4505;DHT22;2265;48.794;9.520;2023-05-09T03:51:01;13.20;98.00
4505;DHT22;2265;48.794;9.520;2023-05-09T03:53:28;13.20;98.00
4505;DHT22;2265;48.794;9.520;2023-05-09T03:55:55;13.20;98.00
4505;DHT22;2265;48.794;9.520;2023-05-09T03:58:22;13.20;98.00
4505;DHT22;2265;48.794;9.520;2023-05-09T04:00:51;13.20;98.00
4505;DHT22;2265;48.794;9.520;2023-05-09T04:03:18;13.10;98.00
4505;DHT22;2265;48.794;9.520;2023-05-09T04:05:45;13.00;98.00
4505;DHT22;2265;48.794;9.520;2023-05-09T04:08:13;13.00;98.00
4505;DHT22;2265;48.794;9.520;2023-05-09T04:10:40;13.20;98.00
4505;DHT22;2265;48.794;9.520;2023-05-09T04:13:07;13.30;98.00
4505;DHT22;2265;48.794;9.520;2023-05-09T04:15:34;13.30;98.00
4505;DHT22;2265;48.794;9.520;2023-05-09T04:18:02;13.40;98.00
4505;DHT22;2265;48.794;9.520;2023-05-09T04:20:30;13.30;98.00
4505;DHT22;2265;48.794;9.520;2023-05-09T04:22:57;13.20;98.00
4505;DHT22;2265;48.794;9.520;2023-05-09T04:25:24;13.30;98.00
4505;DHT22;2265;48.794;9.520;2023-05-09T04:27:51;13.40;98.00
4505;DHT22;2265;48.794;9.520;2023-05-09T04:30:18;13.50;98.00
4505;DHT22;2265;48.794;9.520;2023-05-09T04:32:45;13.40;98.00
4505;DHT22;2265;48.794;9.520;2023-05-09T04:35:15;13.30;98.00
4505;DHT22;2265;48.794;9.520;2023-05-09T04:37:42;13.30;98.00
4505;DHT22;2265;48.794;9.520;2023-05-09T04:40:10;13.20;98.00
4505;DHT22;2265;48.794;9.520;2023-05-09T04:42:37;13.30;98.00
4505;DHT22;2265;48.794;9.520;2023-05-09T04:45:05;13.30;98.00
4505;DHT22;2265;48.794;9.520;2023-05-09T04:47:32;13.30;98.00
4505;DHT22;2265;48.794;9.520;2023-05-09T04:49:59;13.30;98.00
4505;DHT22;2265;48.794;9.520;2023-05-09T04:52:27;13.30;98.00
4505;DHT22;2265;48.794;9.520;2023-05-09T04:54:55;13.40;98.00
4505;DHT22;2265;48.794;9.520;2023-05-09T04:57:22;13.50;98.00
4505;DHT22;2265;48.794;9.520;2023-05-09T04:59:49;13.60;98.00
4505;DHT22;2265;48.794;9.520;2023-05-09T05:02:18;13.70;98.00
4505;DHT22;2265;48.794;9.520;2023-05-09T05:04:46;13.90;98.00
4505;DHT22;2265;48.794;9.520;2023-05-09T05:07:13;14.10;98.00
4505;DHT22;2265;48.794;9.520;2023-05-09T05:09:42;14.20;98.00
4505;DHT22;2265;48.794;9.520;2023-05-09T05:12:12;14.40;98.00
4505;DHT22;2265;48.794;9.520;2023-05-09T05:14:39;14.40;98.00
4505;DHT22;2265;48.794;9.520;2023-05-09T05:17:06;14.40;98.00
4505;DHT22;2265;48.794;9.520;2023-05-09T05:19:34;14.60;98.00
4505;DHT22;2265;48.794;9.520;2023-05-09T05:22:01;14.70;98.00
4505;DHT22;2265;48.794;9.520;2023-05-09T05:24:28;14.60;98.00
4505;DHT22;2265;48.794;9.520;2023-05-09T05:26:57;14.80;98.00
4505;DHT22;2265;48.794;9.520;2023-05-09T05:29:24;14.70;98.00
4505;DHT22;2265;48.794;9.520;2023-05-09T05:31:51;14.70;98.00
4505;DHT22;2265;48.794;9.520;2023-05-09T05:34:19;14.60;98.00
4505;DHT22;2265;48.794;9.520;2023-05-09T05:36:47;14.50;98.00
4505;DHT22;2265;48.794;9.520;2023-05-09T05:39:14;14.50;98.00
4505;DHT22;2265;48.794;9.520;2023-05-09T05:41:41;14.50;98.00
4505;DHT22;2265;48.794;9.520;2023-05-09T05:44:10;14.60;98.00
4505;DHT22;2265;48.794;9.520;2023-05-09T05:46:37;14.80;98.00
4505;DHT22;2265;48.794;9.520;2023-05-09T05:49:04;14.80;98.00
4505;DHT22;2265;48.794;9.520;2023-05-09T05:51:32;14.90;98.00
4505;DHT22;2265;48.794;9.520;2023-05-09T05:53:59;14.90;98.00
4505;DHT22;2265;48.794;9.520;2023-05-09T05:56:26;14.90;98.00
4505;DHT22;2265;48.794;9.520;2023-05-09T05:58:54;15.00;98.00
4505;DHT22;2265;48.794;9.520;2023-05-09T06:01:29;15.20;98.00
4505;DHT22;2265;48.794;9.520;2023-05-09T06:03:56;15.40;98.00
4505;DHT22;2265;48.794;9.520;2023-05-09T06:06:25;15.50;98.00
4505;DHT22;2265;48.794;9.520;2023-05-09T06:08:52;15.60;98.00
4505;DHT22;2265;48.794;9.520;2023-05-09T06:11:20;15.60;98.00
4505;DHT22;2265;48.794;9.520;2023-05-09T06:13:47;15.80;98.00
4505;DHT22;2265;48.794;9.520;2023-05-09T06:16:14;15.90;98.00
4505;DHT22;2265;48.794;9.520;2023-05-09T06:18:42;16.20;98.00
4505;DHT22;2265;48.794;9.520;2023-05-09T06:21:09;16.30;98.00
4505;DHT22;2265;48.794;9.520;2023-05-09T06:23:37;16.40;98.00
4505;DHT22;2265;48.794;9.520;2023-05-09T06:26:04;16.50;98.00
4505;DHT22;2265;48.794;9.520;2023-05-09T06:28:31;16.60;98.00
4505;DHT22;2265;48.794;9.520;2023-05-09T06:31:00;16.50;98.00
4505;DHT22;2265;48.794;9.520;2023-05-09T06:33:27;16.40;98.00
4505;DHT22;2265;48.794;9.520;2023-05-09T06:35:55;16.40;98.00
4505;DHT22;2265;48.794;9.520;2023-05-09T06:38:22;16.40;98.00
4505;DHT22;2265;48.794;9.520;2023-05-09T06:40:49;16.50;98.00
4505;DHT22;2265;48.794;9.520;2023-05-09T06:43:16;16.40;98.00
4505;DHT22;2265;48.794;9.520;2023-05-09T06:45:43;16.40;98.00
4505;DHT22;2265;48.794;9.520;2023-05-09T06:48:10;16.30;98.00
4505;DHT22;2265;48.794;9.520;2023-05-09T06:50:38;16.20;98.00
4505;DHT22;2265;48.794;9.520;2023-05-09T06:53:06;16.20;98.00
4505;DHT22;2265;48.794;9.520;2023-05-09T06:55:35;16.20;98.00
4505;DHT22;2265;48.794;9.520;2023-05-09T06:58:02;16.30;98.00
4505;DHT22;2265;48.794;9.520;2023-05-09T07:00:29;16.40;98.00
4505;DHT22;2265;48.794;9.520;2023-05-09T07:02:56;16.40;98.00
4505;DHT22;2265;48.794;9.520;2023-05-09T07:05:24;16.50;98.00
4505;DHT22;2265;48.794;9.520;2023-05-09T07:07:51;16.60;98.00
4505;DHT22;2265;48.794;9.520;2023-05-09T07:10:21;16.70;98.00
4505;DHT22;2265;48.794;9.520;2023-05-09T07:12:48;16.70;98.00
4505;DHT22;2265;48.794;9.520;2023-05-09T07:15:15;16.90;98.00
4505;DHT22;2265;48.794;9.520;2023-05-09T07:17:42;17.00;98.00
4505;DHT22;2265;48.794;9.520;2023-05-09T07:20:10;17.20;98.00
4505;DHT22;2265;48.794;9.520;2023-05-09T07:22:37;17.30;98.00
4505;DHT22;2265;48.794;9.520;2023-05-09T07:25:07;17.50;98.00
4505;DHT22;2265;48.794;9.520;2023-05-09T07:27:35;17.80;98.00
4505;DHT22;2265;48.794;9.520;2023-05-09T07:30:03;18.00;98.00
4505;DHT22;2265;48.794;9.520;2023-05-09T07:32:30;18.20;98.00
4505;DHT22;2265;48.794;9.520;2023-05-09T07:34:58;18.30;98.00
4505;DHT22;2265;48.794;9.520;2023-05-09T07:37:25;18.30;98.00
4505;DHT22;2265;48.794;9.520;2023-05-09T07:39:52;18.20;98.00
4505;DHT22;2265;48.794;9.520;2023-05-09T07:42:19;18.20;98.00
4505;DHT22;2265;48.794;9.520;2023-05-09T07:44:48;18.20;98.00
4505;DHT22;2265;48.794;9.520;2023-05-09T07:47:15;18.10;98.00
4505;DHT22;2265;48.794;9.520;2023-05-09T07:49:42;18.10;98.00
4505;DHT22;2265;48.794;9.520;2023-05-09T07:52:11;18.10;98.00
4505;DHT22;2265;48.794;9.520;2023-05-09T07:54:38;18.20;98.00
4505;DHT22;2265;48.794;9.520;2023-05-09T07:57:05;18.30;98.00
4505;DHT22;2265;48.794;9.520;2023-05-09T07:59:33;18.50;98.00
4505;DHT22;2265;48.794;9.520;2023-05-09T08:02:01;18.60;98.00
4505;DHT22;2265;48.794;9.520;2023-05-09T08:04:28;18.80;98.00
4505;DHT22;2265;48.794;9.520;2023-05-09T08:06:55;19.00;98.00
4505;DHT22;2265;48.794;9.520;2023-05-09T08:09:24;19.10;98.00
4505;DHT22;2265;48.794;9.520;2023-05-09T08:11:51;19.20;98.00
4505;DHT22;2265;48.794;9.520;2023-05-09T08:14:18;19.40;98.00
4505;DHT22;2265;48.794;9.520;2023-05-09T08:16:47;19.30;98.00
4505;DHT22;2265;48.794;9.520;2023-05-09T08:19:16;19.30;98.00
4505;DHT22;2265;48.794;9.520;2023-05-09T08:21:43;19.40;98.00
4505;DHT22;2265;48.794;9.520;2023-05-09T08:24:10;19.40;98.00
4505;DHT22;2265;48.794;9.520;2023-05-09T08:26:37;19.60;98.00
4505;DHT22;2265;48.794;9.520;2023-05-09T08:29:04;19.70;98.00
4505;DHT22;2265;48.794;9.520;2023-05-09T08:31:31;19.90;98.00
4505;DHT22;2265;48.794;9.520;2023-05-09T08:33:58;20.00;98.00
4505;DHT22;2265;48.794;9.520;2023-05-09T08:36:27;20.10;98.00
4505;DHT22;2265;48.794;9.520;2023-05-09T08:38:55;20.10;98.00
4505;DHT22;2265;48.794;9.520;2023-05-09T08:41:24;20.30;98.00
4505;DHT22;2265;48.794;9.520;2023-05-09T08:43:52;20.20;98.00
4505;DHT22;2265;48.794;9.520;2023-05-09T08:46:26;20.30;98.00
4505;DHT22;2265;48.794;9.520;2023-05-09T08:48:54;20.20;98.00
4505;DHT22;2265;48.794;9.520;2023-05-09T08:51:23;20.30;98.00
4505;DHT22;2265;48.794;9.520;2023-05-09T08:53:52;20.30;98.00
4505;DHT22;2265;48.794;9.520;2023-05-09T08:56:19;20.40;98.00
4505;DHT22;2265;48.794;9.520;2023-05-09T08:58:46;20.60;98.00
4505;DHT22;2265;48.794;9.520;2023-05-09T09:01:14;20.80;98.00
4505;DHT22;2265;48.794;9.520;2023-05-09T09:03:42;20.90;98.00
4505;DHT22;2265;48.794;9.520;2023-05-09T09:06:12;21.00;98.00
4505;DHT22;2265;48.794;9.520;2023-05-09T09:08:40;21.10;98.00
4505;DHT22;2265;48.794;9.520;2023-05-09T09:11:12;21.20;98.00
4505;DHT22;2265;48.794;9.520;2023-05-09T09:13:41;21.30;98.00
4505;DHT22;2265;48.794;9.520;2023-05-09T09:16:16;21.30;98.00
4505;DHT22;2265;48.794;9.520;2023-05-09T09:18:45;21.40;98.00
4505;DHT22;2265;48.794;9.520;2023-05-09T09:21:15;21.50;98.00
4505;DHT22;2265;48.794;9.520;2023-05-09T09:23:43;21.50;98.00
4505;DHT22;2265;48.794;9.520;2023-05-09T09:26:13;21.70;98.00
4505;DHT22;2265;48.794;9.520;2023-05-09T09:28:41;21.90;98.00
4505;DHT22;2265;48.794;9.520;2023-05-09T09:31:21;22.00;98.00
4505;DHT22;2265;48.794;9.520;2023-05-09T09:33:48;22.10;98.00
4505;DHT22;2265;48.794;9.520;2023-05-09T09:36:21;22.20;98.00
4505;DHT22;2265;48.794;9.520;2023-05-09T09:38:57;22.30;98.00
4505;DHT22;2265;48.794;9.520;2023-05-09T09:41:31;22.50;98.00
4505;DHT22;2265;48.794;9.520;2023-05-09T09:43:58;22.60;98.00
4505;DHT22;2265;48.794;9.520;2023-05-09T09:46:40;22.80;98.00
4505;DHT22;2265;48.794;9.520;2023-05-09T09:49:08;22.80;97.30
4505;DHT22;2265;48.794;9.520;2023-05-09T09:51:35;22.90;98.00
4505;DHT22;2265;48.794;9.520;2023-05-09T09:54:02;23.10;98.00
4505;DHT22;2265;48.794;9.520;2023-05-09T09:56:41;23.10;98.00
4505;DHT22;2265;48.794;9.520;2023-05-09T09:59:11;23.20;98.00
4505;DHT22;2265;48.794;9.520;2023-05-09T10:01:54;23.20;98.00
4505;DHT22;2265;48.794;9.520;2023-05-09T10:04:23;23.40;98.00
4505;DHT22;2265;48.794;9.520;2023-05-09T10:06:53;23.50;98.00
4505;DHT22;2265;48.794;9.520;2023-05-09T10:09:21;23.60;98.00
4505;DHT22;2265;48.794;9.520;2023-05-09T10:11:51;23.70;98.00
4505;DHT22;2265;48.794;9.520;2023-05-09T10:14:19;23.80;98.00
4505;DHT22;2265;48.794;9.520;2023-05-09T10:16:49;24.00;98.00
4505;DHT22;2265;48.794;9.520;2023-05-09T10:19:17;24.00;98.00
4505;DHT22;2265;48.794;9.520;2023-05-09T10:21:50;23.80;98.00
4505;DHT22;2265;48.794;9.520;2023-05-09T10:24:21;23.60;98.00
4505;DHT22;2265;48.794;9.520;2023-05-09T10:26:58;23.40;98.00
4505;DHT22;2265;48.794;9.520;2023-05-09T10:29:33;23.40;98.00
4505;DHT22;2265;48.794;9.520;2023-05-09T10:32:07;23.40;98.00
4505;DHT22;2265;48.794;9.520;2023-05-09T10:34:39;23.60;98.00
4505;DHT22;2265;48.794;9.520;2023-05-09T10:37:08;23.70;97.60
4505;DHT22;2265;48.794;9.520;2023-05-09T10:39:35;23.70;98.00
4505;DHT22;2265;48.794;9.520;2023-05-09T10:42:04;23.90;98.00
4505;DHT22;2265;48.794;9.520;2023-05-09T10:44:33;24.10;97.10
4505;DHT22;2265;48.794;9.520;2023-05-09T10:47:00;24.30;98.00
4505;DHT22;2265;48.794;9.520;2023-05-09T10:49:29;24.50;96.80
4505;DHT22;2265;48.794;9.520;2023-05-09T10:51:56;24.60;96.50
4505;DHT22;2265;48.794;9.520;2023-05-09T10:54:29;24.90;97.20
4505;DHT22;2265;48.794;9.520;2023-05-09T10:56:58;25.00;96.40
4505;DHT22;2265;48.794;9.520;2023-05-09T10:59:34;25.10;96.40
4505;DHT22;2265;48.794;9.520;2023-05-09T11:02:03;25.30;95.60
4505;DHT22;2265;48.794;9.520;2023-05-09T11:04:30;25.30;95.70
4505;DHT22;2265;48.794;9.520;2023-05-09T11:06:58;25.10;96.50
4505;DHT22;2265;48.794;9.520;2023-05-09T11:09:27;24.90;94.70
4505;DHT22;2265;48.794;9.520;2023-05-09T11:11:56;24.90;95.30
4505;DHT22;2265;48.794;9.520;2023-05-09T11:14:41;25.10;98.00
4505;DHT22;2265;48.794;9.520;2023-05-09T11:17:10;25.00;96.00
4505;DHT22;2265;48.794;9.520;2023-05-09T11:19:58;24.80;97.20
4505;DHT22;2265;48.794;9.520;2023-05-09T11:22:27;24.60;96.90
4505;DHT22;2265;48.794;9.520;2023-05-09T11:25:01;24.50;97.50
4505;DHT22;2265;48.794;9.520;2023-05-09T11:27:37;24.40;97.60
4505;DHT22;2265;48.794;9.520;2023-05-09T11:30:07;24.20;98.00
4505;DHT22;2265;48.794;9.520;2023-05-09T11:32:42;24.10;98.00
4505;DHT22;2265;48.794;9.520;2023-05-09T11:35:11;24.00;98.00
4505;DHT22;2265;48.794;9.520;2023-05-09T11:37:44;23.90;98.00
4505;DHT22;2265;48.794;9.520;2023-05-09T11:40:13;23.70;98.00
4505;DHT22;2265;48.794;9.520;2023-05-09T11:42:43;23.70;98.00
4505;DHT22;2265;48.794;9.520;2023-05-09T11:45:13;23.70;98.00
4505;DHT22;2265;48.794;9.520;2023-05-09T11:47:40;23.90;98.00
4505;DHT22;2265;48.794;9.520;2023-05-09T11:50:08;24.20;96.00
4505;DHT22;2265;48.794;9.520;2023-05-09T11:52:36;24.70;96.60
4505;DHT22;2265;48.794;9.520;2023-05-09T11:55:05;25.20;97.60
4505;DHT22;2265;48.794;9.520;2023-05-09T11:57:34;25.50;94.40
4505;DHT22;2265;48.794;9.520;2023-05-09T12:00:01;25.40;95.20
4505;DHT22;2265;48.794;9.520;2023-05-09T12:02:32;25.40;94.80
4505;DHT22;2265;48.794;9.520;2023-05-09T12:05:07;25.30;94.90
4505;DHT22;2265;48.794;9.520;2023-05-09T12:07:35;25.40;95.50
4505;DHT22;2265;48.794;9.520;2023-05-09T12:10:05;25.80;95.30
4505;DHT22;2265;48.794;9.520;2023-05-09T12:12:34;25.70;95.90
4505;DHT22;2265;48.794;9.520;2023-05-09T12:15:03;25.50;94.50
4505;DHT22;2265;48.794;9.520;2023-05-09T12:17:31;25.30;94.90
4505;DHT22;2265;48.794;9.520;2023-05-09T12:20:01;25.10;94.10
4505;DHT22;2265;48.794;9.520;2023-05-09T12:22:29;25.40;96.30
4505;DHT22;2265;48.794;9.520;2023-05-09T12:24:59;25.80;93.80
4505;DHT22;2265;48.794;9.520;2023-05-09T12:27:27;26.00;93.20
4505;DHT22;2265;48.794;9.520;2023-05-09T12:29:54;26.00;92.20
4505;DHT22;2265;48.794;9.520;2023-05-09T12:32:22;26.00;92.80
4505;DHT22;2265;48.794;9.520;2023-05-09T12:34:54;26.10;92.00
4505;DHT22;2265;48.794;9.520;2023-05-09T12:37:21;26.10;89.70
4505;DHT22;2265;48.794;9.520;2023-05-09T12:39:59;25.90;89.80
4505;DHT22;2265;48.794;9.520;2023-05-09T12:42:27;25.70;92.60
4505;DHT22;2265;48.794;9.520;2023-05-09T12:44:54;25.50;94.00
4505;DHT22;2265;48.794;9.520;2023-05-09T12:47:22;25.80;93.10
4505;DHT22;2265;48.794;9.520;2023-05-09T12:49:58;26.20;92.60
4505;DHT22;2265;48.794;9.520;2023-05-09T12:52:32;26.30;93.70
4505;DHT22;2265;48.794;9.520;2023-05-09T12:55:04;26.50;93.00
4505;DHT22;2265;48.794;9.520;2023-05-09T12:57:32;26.80;92.00
4505;DHT22;2265;48.794;9.520;2023-05-09T13:00:02;26.90;90.70
4505;DHT22;2265;48.794;9.520;2023-05-09T13:02:34;27.30;90.40
4505;DHT22;2265;48.794;9.520;2023-05-09T13:05:07;27.50;90.30
4505;DHT22;2265;48.794;9.520;2023-05-09T13:07:39;27.10;89.30
4505;DHT22;2265;48.794;9.520;2023-05-09T13:10:10;26.90;89.00
4505;DHT22;2265;48.794;9.520;2023-05-09T13:12:37;27.10;87.40
4505;DHT22;2265;48.794;9.520;2023-05-09T13:15:06;27.30;87.50
4505;DHT22;2265;48.794;9.520;2023-05-09T13:17:37;27.50;87.60
4505;DHT22;2265;48.794;9.520;2023-05-09T13:20:07;27.70;88.10
4505;DHT22;2265;48.794;9.520;2023-05-09T13:22:35;27.80;86.60
4505;DHT22;2265;48.794;9.520;2023-05-09T13:25:03;28.00;86.90
4505;DHT22;2265;48.794;9.520;2023-05-09T13:27:31;27.80;86.30
4505;DHT22;2265;48.794;9.520;2023-05-09T13:29:58;27.60;87.00
4505;DHT22;2265;48.794;9.520;2023-05-09T13:32:25;27.60;88.10
4505;DHT22;2265;48.794;9.520;2023-05-09T13:34:53;27.60;89.20
4505;DHT22;2265;48.794;9.520;2023-05-09T13:37:21;27.60;87.20
4505;DHT22;2265;48.794;9.520;2023-05-09T13:39:48;27.70;89.40
4505;DHT22;2265;48.794;9.520;2023-05-09T13:42:15;28.00;88.40
4505;DHT22;2265;48.794;9.520;2023-05-09T13:44:43;28.10;85.40
4505;DHT22;2265;48.794;9.520;2023-05-09T13:47:10;28.10;85.60
4505;DHT22;2265;48.794;9.520;2023-05-09T13:49:38;27.70;83.70
4505;DHT22;2265;48.794;9.520;2023-05-09T13:52:05;27.40;87.50
4505;DHT22;2265;48.794;9.520;2023-05-09T13:54:35;27.50;87.30
4505;DHT22;2265;48.794;9.520;2023-05-09T13:57:03;27.80;86.00
4505;DHT22;2265;48.794;9.520;2023-05-09T13:59:30;27.80;87.10
4505;DHT22;2265;48.794;9.520;2023-05-09T14:02:01;27.60;85.10
4505;DHT22;2265;48.794;9.520;2023-05-09T14:04:29;27.70;86.80
4505;DHT22;2265;48.794;9.520;2023-05-09T14:06:57;27.70;86.30
4505;DHT22;2265;48.794;9.520;2023-05-09T14:09:25;27.80;86.70
4505;DHT22;2265;48.794;9.520;2023-05-09T14:11:54;27.90;85.40
4505;DHT22;2265;48.794;9.520;2023-05-09T14:14:24;27.80;84.90
4505;DHT22;2265;48.794;9.520;2023-05-09T14:16:51;27.80;87.80
4505;DHT22;2265;48.794;9.520;2023-05-09T14:19:18;27.70;86.70
4505;DHT22;2265;48.794;9.520;2023-05-09T14:21:46;27.60;86.60
4505;DHT22;2265;48.794;9.520;2023-05-09T14:24:13;27.50;85.20
4505;DHT22;2265;48.794;9.520;2023-05-09T14:26:40;27.50;85.60
4505;DHT22;2265;48.794;9.520;2023-05-09T14:29:09;27.60;88.80
4505;DHT22;2265;48.794;9.520;2023-05-09T14:31:36;27.80;85.30
4505;DHT22;2265;48.794;9.520;2023-05-09T14:34:03;27.90;86.60
4505;DHT22;2265;48.794;9.520;2023-05-09T14:36:31;28.00;87.30
4505;DHT22;2265;48.794;9.520;2023-05-09T14:38:59;27.90;85.80
4505;DHT22;2265;48.794;9.520;2023-05-09T14:41:26;27.70;86.50
4505;DHT22;2265;48.794;9.520;2023-05-09T14:43:53;27.60;87.40
4505;DHT22;2265;48.794;9.520;2023-05-09T14:46:22;27.30;86.10
4505;DHT22;2265;48.794;9.520;2023-05-09T14:48:49;27.10;88.40
4505;DHT22;2265;48.794;9.520;2023-05-09T14:51:17;26.90;87.00
4505;DHT22;2265;48.794;9.520;2023-05-09T14:53:44;26.70;88.70
4505;DHT22;2265;48.794;9.520;2023-05-09T14:56:11;26.50;88.30
4505;DHT22;2265;48.794;9.520;2023-05-09T14:58:39;26.10;89.60
4505;DHT22;2265;48.794;9.520;2023-05-09T15:01:06;25.70;89.10
4505;DHT22;2265;48.794;9.520;2023-05-09T15:03:34;25.50;90.40
4505;DHT22;2265;48.794;9.520;2023-05-09T15:06:04;25.20;90.90
4505;DHT22;2265;48.794;9.520;2023-05-09T15:08:31;25.00;92.50
4505;DHT22;2265;48.794;9.520;2023-05-09T15:10:59;24.80;92.80
4505;DHT22;2265;48.794;9.520;2023-05-09T15:13:26;24.80;93.60
4505;DHT22;2265;48.794;9.520;2023-05-09T15:15:53;24.70;93.80
4505;DHT22;2265;48.794;9.520;2023-05-09T15:18:20;24.50;95.10
4505;DHT22;2265;48.794;9.520;2023-05-09T15:20:53;24.10;96.40
4505;DHT22;2265;48.794;9.520;2023-05-09T15:23:20;23.50;98.00
4505;DHT22;2265;48.794;9.520;2023-05-09T15:25:47;23.20;98.00
4505;DHT22;2265;48.794;9.520;2023-05-09T15:28:14;22.60;98.00
4505;DHT22;2265;48.794;9.520;2023-05-09T15:30:41;21.80;98.00
4505;DHT22;2265;48.794;9.520;2023-05-09T15:33:09;21.20;98.00
4505;DHT22;2265;48.794;9.520;2023-05-09T15:35:37;21.10;98.00
4505;DHT22;2265;48.794;9.520;2023-05-09T15:38:06;21.10;98.00
4505;DHT22;2265;48.794;9.520;2023-05-09T15:40:38;21.20;98.00
4505;DHT22;2265;48.794;9.520;2023-05-09T15:43:06;21.40;98.00
4505;DHT22;2265;48.794;9.520;2023-05-09T15:45:33;21.60;98.00
4505;DHT22;2265;48.794;9.520;2023-05-09T15:48:08;21.60;98.00
4505;DHT22;2265;48.794;9.520;2023-05-09T15:50:35;21.60;98.00
4505;DHT22;2265;48.794;9.520;2023-05-09T15:53:02;21.80;98.00
4505;DHT22;2265;48.794;9.520;2023-05-09T15:55:31;21.70;98.00
4505;DHT22;2265;48.794;9.520;2023-05-09T15:57:58;21.90;98.00
4505;DHT22;2265;48.794;9.520;2023-05-09T16:00:27;21.80;98.00
4505;DHT22;2265;48.794;9.520;2023-05-09T16:02:55;21.50;98.00
4505;DHT22;2265;48.794;9.520;2023-05-09T16:05:22;21.50;98.00
4505;DHT22;2265;48.794;9.520;2023-05-09T16:07:49;21.40;98.00
4505;DHT22;2265;48.794;9.520;2023-05-09T16:10:18;21.30;98.00
4505;DHT22;2265;48.794;9.520;2023-05-09T16:12:47;21.30;98.00